Terminal Aerodrome Forecast
Issued by NWS

Home | Current Version | Previous Version | Text Only | Print | Product List | Glossary On
Versions: 1 2 3 4 5 6 7 8 9 10 11 12 13 14
571
FTUS44 KTSA 260520
TAFBVO
TAF
KBVO 260520Z 2606/2706 VRB11KT P6SM VCTS BKN070CB
     FM260900 00000KT P6SM SCT050 BKN250
     FM261500 15008KT P6SM SCT050 BKN250
     FM270100 17003KT P6SM BKN250=

USA.gov is the U.S. government's official web portal to all federal, state and local government web resources and services.